createdAt,value
2018-04-29T00:00:00.453Z,13.00
2018-04-29T00:02:26.667Z,12.90
2018-04-29T00:04:52.887Z,12.90
2018-04-29T00:07:19.161Z,12.90
2018-04-29T00:09:45.395Z,12.90
2018-04-29T00:12:11.640Z,12.90
2018-04-29T00:14:37.883Z,12.80
2018-04-29T00:17:04.103Z,12.80
2018-04-29T00:19:30.298Z,12.80
2018-04-29T00:21:56.525Z,12.80
2018-04-29T00:24:22.747Z,12.80
2018-04-29T00:26:48.974Z,12.80
2018-04-29T00:29:15.240Z,12.70
2018-04-29T00:31:41.504Z,12.70
2018-04-29T00:34:07.721Z,12.70
2018-04-29T00:36:33.952Z,12.60
2018-04-29T00:39:00.168Z,12.60
2018-04-29T00:41:26.391Z,12.70
2018-04-29T00:43:52.996Z,12.70
2018-04-29T00:46:19.222Z,12.60
2018-04-29T00:48:46.197Z,12.60
2018-04-29T00:51:12.434Z,12.60
2018-04-29T00:53:38.672Z,12.60
2018-04-29T00:56:04.910Z,12.60
2018-04-29T00:58:31.184Z,12.60
2018-04-29T01:00:58.163Z,12.50
2018-04-29T01:03:24.378Z,12.50
2018-04-29T01:05:51.436Z,12.50
2018-04-29T01:08:17.630Z,12.50
2018-04-29T01:10:43.842Z,12.40
2018-04-29T01:13:10.094Z,12.40
2018-04-29T01:15:36.334Z,12.40
2018-04-29T01:18:02.574Z,12.40
2018-04-29T01:20:28.816Z,12.30
2018-04-29T01:22:55.041Z,12.30
2018-04-29T01:25:21.262Z,12.30
2018-04-29T01:27:48.264Z,12.30
2018-04-29T01:30:14.478Z,12.30
2018-04-29T01:32:41.439Z,12.30
2018-04-29T01:35:07.707Z,12.30
2018-04-29T01:37:33.943Z,12.20
2018-04-29T01:40:00.159Z,12.20
2018-04-29T01:42:26.401Z,12.20
2018-04-29T01:44:52.725Z,12.20
2018-04-29T01:47:19.693Z,12.20
2018-04-29T01:49:46.656Z,12.20
2018-04-29T01:52:12.915Z,12.20
2018-04-29T01:54:39.167Z,12.20
2018-04-29T01:57:05.441Z,12.10
2018-04-29T01:59:31.669Z,12.10
2018-04-29T02:01:57.890Z,12.00
2018-04-29T02:04:24.142Z,12.00
2018-04-29T02:06:50.364Z,12.10
2018-04-29T02:09:16.597Z,12.10
2018-04-29T02:11:42.834Z,12.10
2018-04-29T02:14:09.067Z,12.10
2018-04-29T02:16:35.308Z,12.10
2018-04-29T02:19:01.543Z,12.00
2018-04-29T02:21:27.765Z,12.10
2018-04-29T02:23:54.770Z,12.00
2018-04-29T02:26:21.001Z,12.00
2018-04-29T02:28:47.224Z,12.00
2018-04-29T02:31:13.452Z,11.90
2018-04-29T02:33:40.425Z,11.90
2018-04-29T02:36:06.680Z,11.90
2018-04-29T02:38:32.924Z,11.90
2018-04-29T02:40:59.192Z,11.90
2018-04-29T02:43:25.431Z,11.90
2018-04-29T02:45:51.785Z,11.90
2018-04-29T02:48:18.019Z,11.90
2018-04-29T02:50:44.265Z,11.90
2018-04-29T02:53:10.505Z,11.90
2018-04-29T02:55:36.729Z,11.80
2018-04-29T02:58:02.984Z,11.80
2018-04-29T03:00:29.209Z,11.80
2018-04-29T03:02:55.460Z,11.70
2018-04-29T03:05:21.691Z,11.70
2018-04-29T03:07:47.919Z,11.60
2018-04-29T03:10:14.169Z,11.50
2018-04-29T03:12:40.377Z,11.50
2018-04-29T03:15:06.598Z,11.50
2018-04-29T03:17:33.569Z,11.50
2018-04-29T03:19:59.795Z,11.50
2018-04-29T03:22:26.747Z,11.50
2018-04-29T03:24:53.733Z,11.40
2018-04-29T03:27:19.942Z,11.40
2018-04-29T03:29:46.191Z,11.40
2018-04-29T03:32:13.161Z,11.30
2018-04-29T03:34:40.160Z,11.30
2018-04-29T03:37:06.381Z,11.30
2018-04-29T03:39:32.638Z,11.30
2018-04-29T03:41:58.857Z,11.40
2018-04-29T03:44:25.090Z,11.50
2018-04-29T03:46:51.489Z,11.50
2018-04-29T03:49:17.716Z,11.50
2018-04-29T03:51:43.942Z,11.50
2018-04-29T03:54:10.208Z,11.60
2018-04-29T03:56:36.437Z,11.60
2018-04-29T03:59:15.024Z,11.50
2018-04-29T04:01:53.565Z,11.50
2018-04-29T04:04:19.792Z,11.30
2018-04-29T04:06:46.031Z,11.20
2018-04-29T04:09:12.259Z,11.10
2018-04-29T04:11:39.256Z,11.00
2018-04-29T04:14:05.470Z,11.00
2018-04-29T04:16:31.675Z,10.90
2018-04-29T04:18:58.674Z,11.00
2018-04-29T04:21:24.879Z,11.00
2018-04-29T04:23:51.195Z,11.20
2018-04-29T04:26:18.109Z,12.10
2018-04-29T04:28:44.327Z,12.00
2018-04-29T04:31:11.298Z,12.50
2018-04-29T04:33:37.558Z,12.60
2018-04-29T04:36:03.799Z,12.60
2018-04-29T04:38:30.027Z,12.60
2018-04-29T04:40:56.250Z,12.80
2018-04-29T04:43:23.190Z,12.70
2018-04-29T04:45:49.401Z,12.70
2018-04-29T04:48:15.983Z,12.60
2018-04-29T04:50:42.219Z,12.50
2018-04-29T04:53:08.445Z,12.50
2018-04-29T04:55:34.714Z,12.60
2018-04-29T04:58:01.734Z,12.70
2018-04-29T05:00:28.670Z,12.70
2018-04-29T05:02:54.919Z,12.70
2018-04-29T05:05:21.151Z,12.80
2018-04-29T05:07:47.374Z,12.80
2018-04-29T05:10:13.593Z,12.80
2018-04-29T05:12:39.850Z,12.80
2018-04-29T05:15:06.856Z,12.80
2018-04-29T05:17:33.088Z,12.80
2018-04-29T05:19:59.320Z,13.00
2018-04-29T05:22:25.538Z,13.20
2018-04-29T05:24:51.779Z,13.40
2018-04-29T05:27:18.030Z,13.50
2018-04-29T05:29:44.252Z,13.60
2018-04-29T05:32:10.504Z,13.70
2018-04-29T05:34:36.706Z,13.90
2018-04-29T05:37:02.918Z,14.00
2018-04-29T05:39:29.182Z,14.20
2018-04-29T05:41:55.406Z,14.30
2018-04-29T05:44:21.618Z,14.30
2018-04-29T05:46:47.864Z,14.30
2018-04-29T05:49:14.332Z,14.30
2018-04-29T05:51:40.589Z,14.40
2018-04-29T05:54:06.869Z,14.40
2018-04-29T05:56:33.087Z,14.50
2018-04-29T05:59:00.057Z,14.50
2018-04-29T06:01:26.320Z,14.50
2018-04-29T06:03:53.255Z,14.60
2018-04-29T06:06:20.242Z,14.60
2018-04-29T06:08:46.589Z,14.60
2018-04-29T06:11:12.801Z,14.60
2018-04-29T06:13:39.779Z,14.70
2018-04-29T06:16:06.771Z,14.70
2018-04-29T06:18:33.033Z,14.70
2018-04-29T06:20:59.245Z,14.80
2018-04-29T06:23:25.500Z,14.80
2018-04-29T06:25:51.711Z,14.80
2018-04-29T06:28:17.922Z,14.90
2018-04-29T06:30:44.193Z,14.90
2018-04-29T06:33:10.396Z,14.90
2018-04-29T06:35:36.623Z,14.90
2018-04-29T06:38:03.594Z,14.90
2018-04-29T06:40:30.559Z,15.00
2018-04-29T06:42:56.786Z,15.00
2018-04-29T06:45:23.787Z,15.00
2018-04-29T06:47:49.998Z,15.00
2018-04-29T06:50:16.372Z,15.00
2018-04-29T06:52:42.616Z,15.10
2018-04-29T06:55:08.842Z,15.20
2018-04-29T06:57:35.048Z,15.30
2018-04-29T07:00:01.318Z,15.40
2018-04-29T07:02:27.543Z,15.50
2018-04-29T07:04:53.751Z,15.60
2018-04-29T07:07:19.986Z,15.60
2018-04-29T07:09:46.225Z,15.70
2018-04-29T07:12:12.465Z,15.80
2018-04-29T07:14:38.715Z,15.80
2018-04-29T07:17:04.935Z,15.90
2018-04-29T07:19:31.148Z,16.00
2018-04-29T07:21:57.386Z,16.10
2018-04-29T07:24:23.591Z,16.10
2018-04-29T07:26:50.560Z,16.20
2018-04-29T07:29:17.559Z,16.30
2018-04-29T07:31:43.771Z,16.30
2018-04-29T07:34:10.050Z,16.30
2018-04-29T07:36:36.240Z,16.30
2018-04-29T07:39:02.516Z,16.50
2018-04-29T07:41:28.747Z,16.60
2018-04-29T07:43:55.786Z,16.70
2018-04-29T07:46:22.047Z,16.80
2018-04-29T07:48:48.966Z,17.00
2018-04-29T07:51:16.208Z,17.10
2018-04-29T07:53:42.421Z,17.10
2018-04-29T07:56:08.678Z,17.20
2018-04-29T07:58:34.919Z,17.30
2018-04-29T08:01:01.144Z,17.40
2018-04-29T08:03:27.365Z,17.50
2018-04-29T08:05:53.606Z,17.60
2018-04-29T08:08:19.847Z,17.70
2018-04-29T08:10:46.093Z,17.80
2018-04-29T08:13:12.331Z,18.00
2018-04-29T08:15:38.595Z,18.00
2018-04-29T08:18:04.830Z,18.10
2018-04-29T08:20:31.075Z,18.30
2018-04-29T08:22:57.317Z,18.30
2018-04-29T08:25:23.540Z,18.50
2018-04-29T08:27:50.522Z,18.70
2018-04-29T08:30:16.771Z,18.70
2018-04-29T08:32:42.998Z,18.90
2018-04-29T08:35:09.252Z,19.00
2018-04-29T08:37:35.498Z,19.10
2018-04-29T08:40:01.720Z,19.20
2018-04-29T08:42:27.952Z,19.20
2018-04-29T08:44:54.192Z,19.30
2018-04-29T08:47:20.468Z,19.40
2018-04-29T08:49:46.712Z,19.60
2018-04-29T08:52:13.331Z,19.80
2018-04-29T08:54:39.587Z,19.90
2018-04-29T08:57:05.822Z,20.00
2018-04-29T08:59:32.053Z,20.10
2018-04-29T09:01:58.282Z,20.20
2018-04-29T09:04:24.512Z,20.20
2018-04-29T09:06:50.745Z,20.20
2018-04-29T09:09:16.973Z,20.30
2018-04-29T09:11:44.000Z,20.80
2018-04-29T09:14:10.250Z,20.80
2018-04-29T09:16:37.226Z,21.20
2018-04-29T09:19:04.241Z,21.40
2018-04-29T09:21:30.494Z,21.40
2018-04-29T09:23:56.803Z,21.60
2018-04-29T09:26:23.073Z,21.70
2018-04-29T09:28:49.420Z,21.90
2018-04-29T09:31:16.414Z,22.20
2018-04-29T09:33:42.682Z,22.20
2018-04-29T09:36:08.905Z,22.30
2018-04-29T09:38:35.115Z,22.50
2018-04-29T09:41:02.119Z,22.80
2018-04-29T09:43:28.391Z,22.80
2018-04-29T09:45:54.621Z,23.00
2018-04-29T09:48:20.886Z,23.10
2018-04-29T09:50:47.131Z,23.10
2018-04-29T09:53:13.497Z,23.30
2018-04-29T09:55:40.485Z,23.60
2018-04-29T09:58:06.699Z,23.60
2018-04-29T10:00:32.930Z,23.80
2018-04-29T10:03:05.228Z,24.00
2018-04-29T10:05:31.477Z,24.20
2018-04-29T10:07:57.708Z,24.40
2018-04-29T10:10:23.998Z,24.50
2018-04-29T10:12:50.240Z,24.70
2018-04-29T10:15:16.464Z,24.70
2018-04-29T10:17:42.735Z,24.80
2018-04-29T10:20:08.968Z,24.80
2018-04-29T10:22:35.201Z,24.70
2018-04-29T10:25:01.440Z,24.70
2018-04-29T10:27:27.654Z,24.80
2018-04-29T10:29:53.932Z,25.00
2018-04-29T10:32:21.038Z,25.50
2018-04-29T10:34:47.241Z,25.40
2018-04-29T10:37:14.230Z,25.60
2018-04-29T10:39:40.450Z,25.60
2018-04-29T10:42:07.417Z,26.00
2018-04-29T10:44:34.388Z,26.30
2018-04-29T10:47:00.629Z,26.20
2018-04-29T10:49:26.895Z,26.30
2018-04-29T10:51:53.131Z,26.30
2018-04-29T10:54:19.739Z,26.50
2018-04-29T10:56:46.010Z,26.60
2018-04-29T10:59:12.201Z,26.80
2018-04-29T11:01:38.462Z,26.90
2018-04-29T11:04:05.473Z,27.40
2018-04-29T11:06:31.709Z,27.40
2018-04-29T11:08:58.728Z,27.40
2018-04-29T11:11:25.697Z,27.30
2018-04-29T11:13:54.292Z,27.30
2018-04-29T11:16:20.541Z,27.40
2018-04-29T11:18:46.777Z,27.70
2018-04-29T11:21:13.746Z,27.90
2018-04-29T11:23:40.067Z,27.90
2018-04-29T11:26:06.457Z,27.90
2018-04-29T11:28:32.727Z,28.00
2018-04-29T11:30:59.692Z,27.80
2018-04-29T11:33:25.914Z,27.80
2018-04-29T11:35:52.121Z,27.70
2018-04-29T11:38:18.363Z,27.70
2018-04-29T11:40:44.683Z,27.90
2018-04-29T11:43:10.845Z,28.20
2018-04-29T11:45:37.081Z,28.40
2018-04-29T11:48:03.375Z,28.60
2018-04-29T11:50:29.584Z,28.80
2018-04-29T11:52:55.808Z,28.90
2018-04-29T11:55:22.336Z,29.10
2018-04-29T11:57:48.549Z,29.20
2018-04-29T12:00:14.826Z,29.30
2018-04-29T12:02:41.100Z,29.20
2018-04-29T12:05:07.328Z,29.20
2018-04-29T12:07:33.583Z,29.10
2018-04-29T12:09:59.798Z,29.10
2018-04-29T12:12:26.032Z,29.10
2018-04-29T12:14:52.343Z,29.00
2018-04-29T12:17:18.575Z,29.00
2018-04-29T12:19:45.553Z,29.10
2018-04-29T12:22:11.789Z,29.00
2018-04-29T12:24:38.039Z,29.10
2018-04-29T12:27:04.269Z,29.10
2018-04-29T12:29:31.361Z,29.20
2018-04-29T12:31:57.603Z,29.20
2018-04-29T12:34:23.843Z,29.30
2018-04-29T12:36:50.083Z,29.30
2018-04-29T12:39:17.405Z,29.30
2018-04-29T12:41:43.837Z,29.40
2018-04-29T12:44:10.104Z,29.50
2018-04-29T12:46:37.434Z,29.40
2018-04-29T12:49:03.685Z,29.40
2018-04-29T12:51:30.709Z,29.50
2018-04-29T12:53:56.943Z,29.40
2018-04-29T12:56:23.421Z,29.60
2018-04-29T12:58:49.657Z,29.80
2018-04-29T13:01:15.869Z,30.10
2018-04-29T13:03:42.088Z,30.20
2018-04-29T13:06:08.336Z,30.10
2018-04-29T13:08:34.555Z,30.10
2018-04-29T13:11:00.841Z,30.10
2018-04-29T13:13:27.118Z,30.30
2018-04-29T13:15:54.105Z,30.40
2018-04-29T13:18:20.323Z,30.40
2018-04-29T13:20:47.321Z,30.90
2018-04-29T13:23:13.558Z,30.80
2018-04-29T13:25:39.786Z,31.20
2018-04-29T13:28:06.039Z,31.60
2018-04-29T13:30:32.282Z,32.10
2018-04-29T13:32:58.532Z,32.30
2018-04-29T13:35:24.813Z,32.30
2018-04-29T13:37:51.043Z,32.40
2018-04-29T13:40:17.265Z,32.60
2018-04-29T13:42:43.523Z,32.90
2018-04-29T13:45:09.749Z,32.90
2018-04-29T13:47:35.980Z,32.60
2018-04-29T13:50:02.266Z,32.10
2018-04-29T13:52:28.500Z,31.70
2018-04-29T13:54:54.730Z,31.40
2018-04-29T13:57:21.316Z,31.50
2018-04-29T13:59:47.530Z,31.90
2018-04-29T14:02:14.611Z,32.30
2018-04-29T14:04:41.606Z,33.20
2018-04-29T14:07:07.888Z,33.20
2018-04-29T14:09:34.088Z,33.50
2018-04-29T14:12:00.342Z,33.60
2018-04-29T14:14:26.572Z,33.80
2018-04-29T14:16:52.815Z,33.90
2018-04-29T14:19:19.061Z,34.10
2018-04-29T14:21:45.303Z,34.30
2018-04-29T14:24:11.515Z,34.20
2018-04-29T14:26:37.757Z,34.20
2018-04-29T14:29:03.985Z,34.30
2018-04-29T14:31:30.203Z,34.30
2018-04-29T14:33:56.478Z,34.30
2018-04-29T14:36:22.690Z,34.30
2018-04-29T14:38:49.649Z,34.50
2018-04-29T14:41:16.009Z,34.50
2018-04-29T14:43:42.232Z,34.70
2018-04-29T14:46:09.332Z,34.80
2018-04-29T14:48:35.654Z,34.80
2018-04-29T14:51:01.871Z,34.90
2018-04-29T14:53:28.098Z,35.00
2018-04-29T14:55:54.638Z,35.00
2018-04-29T14:58:20.998Z,34.90
2018-04-29T15:00:47.234Z,34.90
2018-04-29T15:03:14.244Z,34.80
2018-04-29T15:05:40.486Z,34.80
2018-04-29T15:08:06.749Z,34.90
2018-04-29T15:10:33.037Z,34.80
2018-04-29T15:12:59.514Z,34.80
2018-04-29T15:15:25.744Z,34.70
2018-04-29T15:17:52.002Z,34.40
2018-04-29T15:20:18.670Z,34.30
2018-04-29T15:22:45.106Z,34.30
2018-04-29T15:25:11.429Z,34.60
2018-04-29T15:27:38.139Z,34.70
2018-04-29T15:30:05.189Z,34.80
2018-04-29T15:32:32.322Z,34.80
2018-04-29T15:34:58.608Z,34.80
2018-04-29T15:37:25.552Z,34.60
2018-04-29T15:39:51.804Z,34.50
2018-04-29T15:42:18.767Z,34.60
2018-04-29T15:44:45.016Z,34.60
2018-04-29T15:47:11.338Z,34.70
2018-04-29T15:49:37.578Z,34.60
2018-04-29T15:52:05.178Z,34.40
2018-04-29T15:54:31.816Z,34.30
2018-04-29T15:56:59.989Z,33.90
2018-04-29T15:59:27.288Z,33.80
2018-04-29T16:01:54.079Z,33.70
2018-04-29T16:04:22.458Z,33.50
2018-04-29T16:06:48.891Z,32.90
2018-04-29T16:09:15.233Z,32.10
2018-04-29T16:11:41.513Z,31.30
2018-04-29T16:14:07.732Z,30.60
2018-04-29T16:16:33.983Z,30.10
2018-04-29T16:19:00.186Z,29.90
2018-04-29T16:21:26.435Z,29.80
2018-04-29T16:23:52.804Z,29.90
2018-04-29T16:26:19.685Z,30.10
2018-04-29T16:28:46.994Z,30.70
2018-04-29T16:31:13.632Z,30.60
2018-04-29T16:33:40.674Z,31.00
2018-04-29T16:36:07.667Z,31.10
2018-04-29T16:38:33.936Z,31.10
2018-04-29T16:41:00.182Z,30.90
2018-04-29T16:43:26.403Z,30.50
2018-04-29T16:45:53.795Z,30.10
2018-04-29T16:48:20.035Z,29.80
2018-04-29T16:50:46.277Z,29.70
2018-04-29T16:53:12.678Z,29.60
2018-04-29T16:55:38.904Z,29.60
2018-04-29T16:58:05.136Z,29.60
2018-04-29T17:00:31.592Z,29.70
2018-04-29T17:02:58.332Z,29.70
2018-04-29T17:05:24.565Z,29.80
2018-04-29T17:07:51.546Z,29.70
2018-04-29T17:10:17.771Z,29.60
2018-04-29T17:12:43.998Z,29.60
2018-04-29T17:15:10.964Z,29.40
2018-04-29T17:17:37.944Z,29.30
2018-04-29T17:20:04.194Z,29.30
2018-04-29T17:22:30.456Z,29.20
2018-04-29T17:24:56.972Z,28.90
2018-04-29T17:27:23.190Z,28.60
2018-04-29T17:29:49.462Z,28.20
2018-04-29T17:32:15.695Z,27.80
2018-04-29T17:34:41.916Z,27.30
2018-04-29T17:37:08.237Z,27.00
2018-04-29T17:39:35.224Z,26.30
2018-04-29T17:42:01.468Z,26.30
2018-04-29T17:44:27.722Z,26.00
2018-04-29T17:46:55.629Z,25.60
2018-04-29T17:49:21.891Z,25.60
2018-04-29T17:51:48.225Z,25.40
2018-04-29T17:54:14.454Z,25.20
2018-04-29T17:56:40.690Z,24.90
2018-04-29T17:59:06.969Z,24.70
2018-04-29T18:01:34.316Z,24.20
2018-04-29T18:04:00.537Z,24.20
2018-04-29T18:06:26.785Z,24.10
2018-04-29T18:08:53.014Z,23.80
2018-04-29T18:11:19.275Z,23.60
2018-04-29T18:13:45.539Z,23.40
2018-04-29T18:16:12.517Z,23.00
2018-04-29T18:18:38.764Z,23.00
2018-04-29T18:21:05.022Z,22.80
2018-04-29T18:23:31.240Z,22.70
2018-04-29T18:25:57.477Z,22.50
2018-04-29T18:28:23.721Z,22.40
2018-04-29T18:30:50.667Z,22.10
2018-04-29T18:33:16.932Z,22.00
2018-04-29T18:35:43.200Z,21.90
2018-04-29T18:38:09.454Z,21.70
2018-04-29T18:40:35.756Z,21.60
2018-04-29T18:43:02.047Z,21.40
2018-04-29T18:45:28.565Z,21.20
2018-04-29T18:47:54.840Z,21.00
2018-04-29T18:50:21.944Z,20.70
2018-04-29T18:52:48.118Z,20.70
2018-04-29T18:55:14.379Z,20.60
2018-04-29T18:57:40.695Z,20.40
2018-04-29T19:00:06.951Z,20.30
2018-04-29T19:02:33.764Z,20.20
2018-04-29T19:05:00.279Z,20.10
2018-04-29T19:07:27.301Z,19.90
2018-04-29T19:09:53.599Z,19.90
2018-04-29T19:12:21.135Z,19.90
2018-04-29T19:14:47.435Z,19.70
2018-04-29T19:17:13.755Z,19.70
2018-04-29T19:19:40.023Z,19.60
2018-04-29T19:22:06.322Z,19.50
2018-04-29T19:24:32.612Z,19.40
2018-04-29T19:26:59.239Z,19.30
2018-04-29T19:29:25.494Z,19.20
2018-04-29T19:31:51.807Z,19.10
2018-04-29T19:34:18.108Z,19.00
2018-04-29T19:36:44.440Z,18.90
2018-04-29T19:39:10.732Z,18.80
2018-04-29T19:41:37.025Z,18.80
2018-04-29T19:44:03.317Z,18.60
2018-04-29T19:46:29.626Z,18.60
2018-04-29T19:48:55.972Z,18.60
2018-04-29T19:51:22.657Z,18.50
2018-04-29T19:53:49.718Z,18.50
2018-04-29T19:56:16.013Z,18.50
2018-04-29T19:58:42.967Z,18.50
2018-04-29T20:01:09.264Z,18.50
2018-04-29T20:03:35.818Z,18.40
2018-04-29T20:06:02.133Z,18.40
2018-04-29T20:08:28.479Z,18.40
2018-04-29T20:10:54.850Z,18.40
2018-04-29T20:13:21.192Z,18.30
2018-04-29T20:15:47.464Z,18.30
2018-04-29T20:18:13.767Z,18.30
2018-04-29T20:20:40.054Z,18.30
2018-04-29T20:23:06.320Z,18.20
2018-04-29T20:25:33.009Z,18.10
2018-04-29T20:27:59.271Z,18.00
2018-04-29T20:30:25.552Z,17.80
2018-04-29T20:32:52.785Z,17.70
2018-04-29T20:35:20.134Z,17.50
2018-04-29T20:37:47.954Z,17.50
2018-04-29T20:40:15.533Z,17.40
2018-04-29T20:42:44.416Z,17.40
2018-04-29T20:45:12.338Z,17.30
2018-04-29T20:47:39.936Z,17.20
2018-04-29T20:50:08.513Z,17.10
2018-04-29T20:52:35.439Z,17.10
2018-04-29T20:55:02.151Z,17.00
2018-04-29T20:57:30.465Z,17.20
2018-04-29T20:59:56.807Z,17.10
2018-04-29T21:02:23.075Z,17.30
2018-04-29T21:04:58.146Z,17.50
2018-04-29T21:07:25.205Z,17.50
2018-04-29T21:09:51.660Z,17.60
2018-04-29T21:12:18.071Z,17.70
2018-04-29T21:14:45.628Z,17.90
2018-04-29T21:17:13.044Z,17.90
2018-04-29T21:19:40.001Z,17.90
2018-04-29T21:22:07.302Z,17.90
2018-04-29T21:24:33.819Z,17.90
2018-04-29T21:27:00.561Z,17.80
2018-04-29T21:29:27.601Z,17.60
2018-04-29T21:31:53.809Z,17.60
2018-04-29T21:34:20.043Z,17.50
2018-04-29T21:36:46.293Z,17.50
2018-04-29T21:39:12.557Z,17.40
2018-04-29T21:41:38.765Z,17.30
2018-04-29T21:44:05.012Z,17.30
2018-04-29T21:46:31.237Z,17.30
2018-04-29T21:48:57.461Z,17.30
2018-04-29T21:51:23.703Z,17.20
2018-04-29T21:53:49.948Z,17.10
2018-04-29T21:56:17.007Z,17.20
2018-04-29T21:58:43.387Z,17.10
2018-04-29T22:01:09.687Z,17.20
2018-04-29T22:03:35.895Z,17.20
2018-04-29T22:06:02.781Z,17.30
2018-04-29T22:08:29.016Z,17.30
2018-04-29T22:10:55.239Z,17.30
2018-04-29T22:13:21.505Z,17.20
2018-04-29T22:15:47.741Z,17.20
2018-04-29T22:18:14.031Z,17.10
2018-04-29T22:20:41.052Z,16.90
2018-04-29T22:23:07.687Z,16.90
2018-04-29T22:25:33.915Z,16.80
2018-04-29T22:28:00.159Z,16.90
2018-04-29T22:30:26.442Z,16.80
2018-04-29T22:32:52.654Z,16.80
2018-04-29T22:35:19.658Z,16.70
2018-04-29T22:37:46.624Z,16.70
2018-04-29T22:40:13.596Z,16.70
2018-04-29T22:42:39.870Z,16.60
2018-04-29T22:45:06.118Z,16.60
2018-04-29T22:47:32.367Z,16.60
2018-04-29T22:49:59.344Z,16.60
2018-04-29T22:52:25.571Z,16.60
2018-04-29T22:54:51.825Z,16.50
2018-04-29T22:57:18.105Z,16.50
2018-04-29T22:59:44.350Z,16.50
2018-04-29T23:02:10.607Z,16.50
2018-04-29T23:04:36.859Z,16.40
2018-04-29T23:07:03.509Z,16.50
2018-04-29T23:09:29.746Z,16.40
2018-04-29T23:11:56.003Z,16.40
2018-04-29T23:14:22.203Z,16.30
2018-04-29T23:16:48.425Z,16.30
2018-04-29T23:19:14.671Z,16.30
2018-04-29T23:21:40.909Z,16.30
2018-04-29T23:24:07.143Z,16.20
2018-04-29T23:26:33.423Z,16.20
2018-04-29T23:28:59.663Z,16.20
2018-04-29T23:31:25.893Z,16.20
2018-04-29T23:33:52.143Z,16.10
2018-04-29T23:36:18.369Z,16.10
2018-04-29T23:38:44.597Z,16.10
2018-04-29T23:41:10.845Z,16.10
2018-04-29T23:43:37.063Z,16.00
2018-04-29T23:46:04.020Z,16.00
2018-04-29T23:48:31.016Z,16.00
2018-04-29T23:50:57.231Z,16.00
2018-04-29T23:53:23.441Z,16.00
2018-04-29T23:55:49.673Z,16.00
2018-04-29T23:58:15.899Z,16.00
